Time;durP1;ratioP1;P1;durP2;ratioP2;P2;SDS_P1;SDS_P2;PMS_P1;PMS_P2;Temp;Humidity;BMP_temperature;BMP_pressure;BME280_temperature;BME280_humidity;BME280_pressure;Samples;Min_cycle;Max_cycle;Signal;HPM_P1;HPM_P2
2021/12/26 00:00:23;;;;;;;13.23;10.07;;;;;;;;;;6216382;28;20225;-66
2021/12/26 00:03:44;;;;;;;14.20;10.17;;;;;;;;;;6206990;28;20237;-67
2021/12/26 00:07:05;;;;;;;11.70;9.63;;;;;;;;;;6213008;28;20229;-66
2021/12/26 00:10:28;;;;;;;15.23;12.90;;;;;;;;;;6213692;28;20237;-66
2021/12/26 00:13:50;;;;;;;47.13;37.30;;;;;;;;;;6214717;28;20328;-66
2021/12/26 00:17:12;;;;;;;27.47;20.80;;;;;;;;;;6210459;28;20571;-66
2021/12/26 00:20:33;;;;;;;26.53;19.27;;;;;;;;;;6214821;28;20611;-65
2021/12/26 00:23:55;;;;;;;34.43;27.17;;;;;;;;;;6203837;28;20330;-66
2021/12/26 00:27:18;;;;;;;43.87;36.90;;;;;;;;;;6211495;28;20233;-66
2021/12/26 00:30:39;;;;;;;21.27;17.13;;;;;;;;;;6210648;28;20234;-66
2021/12/26 00:34:01;;;;;;;14.30;11.40;;;;;;;;;;6213064;28;20233;-67
2021/12/26 00:37:22;;;;;;;15.07;11.20;;;;;;;;;;6211955;28;20271;-66
2021/12/26 00:40:44;;;;;;;33.50;24.67;;;;;;;;;;6209185;28;20669;-66
2021/12/26 00:44:05;;;;;;;17.97;15.90;;;;;;;;;;6213092;28;20240;-66
2021/12/26 00:47:29;;;;;;;11.73;10.60;;;;;;;;;;6215686;28;20237;-65
2021/12/26 00:50:51;;;;;;;11.87;9.63;;;;;;;;;;6211364;28;20230;-65
2021/12/26 00:54:14;;;;;;;12.43;10.33;;;;;;;;;;6212376;28;20520;-65
2021/12/26 00:57:35;;;;;;;11.93;10.30;;;;;;;;;;6211826;28;20229;-66
2021/12/26 01:00:55;;;;;;;10.67;9.57;;;;;;;;;;6210611;28;20327;-66
2021/12/26 01:04:16;;;;;;;14.57;10.67;;;;;;;;;;6211446;28;20328;-67
2021/12/26 01:07:50;;;;;;;10.83;9.77;;;;;;;;;;6214355;28;20237;-66
2021/12/26 01:11:19;;;;;;;12.47;10.17;;;;;;;;;;6212152;28;20232;-65
2021/12/26 01:14:47;;;;;;;12.80;10.03;;;;;;;;;;6211883;28;20236;-66
2021/12/26 01:18:30;;;;;;;15.47;9.77;;;;;;;;;;6212439;28;20702;-66
2021/12/26 01:21:51;;;;;;;10.43;9.03;;;;;;;;;;6207678;28;20225;-67
2021/12/26 01:25:15;;;;;;;11.60;9.73;;;;;;;;;;6194922;28;20229;-67
2021/12/26 01:28:36;;;;;;;10.03;8.90;;;;;;;;;;6212742;28;20237;-65
2021/12/26 01:32:00;;;;;;;10.83;8.73;;;;;;;;;;6213037;28;20846;-66
2021/12/26 01:35:58;;;;;;;12.23;10.03;;;;;;;;;;6211335;28;20268;-67
2021/12/26 01:39:48;;;;;;;15.23;10.20;;;;;;;;;;6206601;28;20221;-66
2021/12/26 01:43:16;;;;;;;11.80;10.60;;;;;;;;;;6209384;28;20568;-66
2021/12/26 01:46:53;;;;;;;12.63;10.77;;;;;;;;;;6204581;28;20233;-66
2021/12/26 01:50:18;;;;;;;13.70;10.93;;;;;;;;;;6210139;28;20610;-66
2021/12/26 01:53:40;;;;;;;11.07;9.87;;;;;;;;;;6212742;28;20937;-66
2021/12/26 01:57:02;;;;;;;12.13;10.00;;;;;;;;;;6207438;28;20229;-67
2021/12/26 02:00:25;;;;;;;13.80;10.53;;;;;;;;;;6211069;28;20518;-67
2021/12/26 02:03:45;;;;;;;11.03;9.77;;;;;;;;;;6212471;28;20599;-67
2021/12/26 02:07:08;;;;;;;10.43;9.43;;;;;;;;;;6210379;28;20229;-66
2021/12/26 02:10:29;;;;;;;10.13;8.60;;;;;;;;;;6210938;28;20670;-67
2021/12/26 02:13:49;;;;;;;12.47;11.27;;;;;;;;;;6210144;28;20578;-66
2021/12/26 02:17:11;;;;;;;11.40;9.53;;;;;;;;;;6205311;28;20261;-66
2021/12/26 02:20:41;;;;;;;11.50;9.87;;;;;;;;;;6210132;28;20319;-66
2021/12/26 02:24:11;;;;;;;10.33;9.13;;;;;;;;;;6204095;28;20233;-66
2021/12/26 02:27:33;;;;;;;11.33;10.13;;;;;;;;;;6211887;28;20241;-67
2021/12/26 02:30:57;;;;;;;11.13;9.87;;;;;;;;;;6208313;28;20244;-67
2021/12/26 02:34:19;;;;;;;10.27;9.27;;;;;;;;;;6204837;28;20233;-67
2021/12/26 02:37:41;;;;;;;18.67;10.33;;;;;;;;;;6215512;28;20225;-67
2021/12/26 02:41:04;;;;;;;11.20;9.57;;;;;;;;;;6216922;28;20306;-66
2021/12/26 02:44:25;;;;;;;13.20;9.63;;;;;;;;;;6217687;28;20232;-66
2021/12/26 02:47:47;;;;;;;12.33;9.63;;;;;;;;;;6216501;28;20233;-65
2021/12/26 02:51:08;;;;;;;11.37;10.10;;;;;;;;;;6214178;28;20257;-66
2021/12/26 02:54:30;;;;;;;11.47;9.23;;;;;;;;;;6215975;28;20233;-67
2021/12/26 02:57:53;;;;;;;9.23;8.30;;;;;;;;;;6217660;28;20237;-65
2021/12/26 03:01:17;;;;;;;15.33;9.00;;;;;;;;;;6215890;28;20229;-66
2021/12/26 03:04:37;;;;;;;14.57;10.17;;;;;;;;;;6216018;28;20745;-65
2021/12/26 03:07:59;;;;;;;13.43;10.40;;;;;;;;;;6216315;28;20614;-66
2021/12/26 03:11:21;;;;;;;11.87;10.60;;;;;;;;;;6215356;28;20669;-65
2021/12/26 03:14:42;;;;;;;14.27;9.53;;;;;;;;;;6216499;28;20229;-65
2021/12/26 03:18:05;;;;;;;12.30;9.10;;;;;;;;;;6215970;28;20328;-65
2021/12/26 03:21:26;;;;;;;9.67;8.33;;;;;;;;;;6213210;28;20323;-65
2021/12/26 03:24:46;;;;;;;12.23;9.27;;;;;;;;;;6216060;28;20233;-66
2021/12/26 03:28:10;;;;;;;10.70;8.57;;;;;;;;;;6212044;28;20237;-65
2021/12/26 03:31:31;;;;;;;17.20;9.37;;;;;;;;;;6212566;28;20244;-65
2021/12/26 03:34:51;;;;;;;10.73;8.83;;;;;;;;;;6209984;28;20245;-65
2021/12/26 03:38:14;;;;;;;11.67;9.53;;;;;;;;;;6211763;28;20618;-65
2021/12/26 03:41:58;;;;;;;9.77;8.87;;;;;;;;;;6210523;28;20252;-67
2021/12/26 03:45:22;;;;;;;12.53;10.03;;;;;;;;;;6205884;28;20320;-66
2021/12/26 03:48:44;;;;;;;10.93;9.13;;;;;;;;;;6214810;28;20240;-66
2021/12/26 03:52:05;;;;;;;9.40;8.50;;;;;;;;;;6209706;28;20503;-65
2021/12/26 03:55:26;;;;;;;14.30;9.13;;;;;;;;;;6212901;28;20606;-65
2021/12/26 03:58:48;;;;;;;12.23;9.00;;;;;;;;;;6215040;28;20237;-65
2021/12/26 04:02:10;;;;;;;11.23;10.03;;;;;;;;;;6213495;28;20320;-66
2021/12/26 04:05:31;;;;;;;13.67;9.40;;;;;;;;;;6213871;28;20229;-66
2021/12/26 04:08:53;;;;;;;9.53;8.33;;;;;;;;;;6210816;28;20217;-65
2021/12/26 04:12:13;;;;;;;10.60;9.53;;;;;;;;;;6214317;28;20344;-67
2021/12/26 04:15:35;;;;;;;10.60;9.33;;;;;;;;;;6201164;28;20229;-65
2021/12/26 04:18:58;;;;;;;10.00;8.60;;;;;;;;;;6214757;28;20233;-66
2021/12/26 04:22:19;;;;;;;10.30;7.87;;;;;;;;;;6208118;28;20225;-65
2021/12/26 04:25:40;;;;;;;12.93;7.97;;;;;;;;;;6211129;28;20529;-65
2021/12/26 04:29:01;;;;;;;9.47;7.37;;;;;;;;;;6212023;28;20570;-67
2021/12/26 04:32:25;;;;;;;10.23;8.40;;;;;;;;;;6211803;28;20249;-66
2021/12/26 04:35:47;;;;;;;10.47;8.87;;;;;;;;;;6206938;28;20230;-66
2021/12/26 04:39:10;;;;;;;13.33;7.93;;;;;;;;;;6211342;28;20233;-66
2021/12/26 04:42:31;;;;;;;7.33;6.63;;;;;;;;;;6209574;28;20237;-66
2021/12/26 04:46:24;;;;;;;9.23;6.93;;;;;;;;;;6211385;28;20351;-66
2021/12/26 04:50:12;;;;;;;9.67;7.60;;;;;;;;;;6213641;28;20229;-66
2021/12/26 04:53:41;;;;;;;8.00;6.80;;;;;;;;;;6210036;28;20705;-66
2021/12/26 04:57:02;;;;;;;12.50;8.47;;;;;;;;;;6208749;28;20506;-67
2021/12/26 05:00:27;;;;;;;8.97;7.30;;;;;;;;;;6212826;28;20295;-67
2021/12/26 05:03:48;;;;;;;7.17;6.50;;;;;;;;;;6212066;28;20229;-66
2021/12/26 05:07:09;;;;;;;7.83;7.00;;;;;;;;;;6211465;28;20262;-66
2021/12/26 05:10:31;;;;;;;8.13;7.10;;;;;;;;;;6213906;28;20587;-66
2021/12/26 05:13:52;;;;;;;10.30;5.93;;;;;;;;;;6210664;28;20225;-66
2021/12/26 05:17:12;;;;;;;7.23;5.83;;;;;;;;;;6209866;28;20269;-67
2021/12/26 05:20:34;;;;;;;7.77;5.60;;;;;;;;;;6210619;28;20226;-65
2021/12/26 05:23:55;;;;;;;7.33;6.60;;;;;;;;;;6210156;28;20241;-66
2021/12/26 05:27:17;;;;;;;8.03;7.27;;;;;;;;;;6209137;28;20630;-65
2021/12/26 05:30:38;;;;;;;8.77;7.83;;;;;;;;;;6210879;28;20232;-67
2021/12/26 05:34:25;;;;;;;7.80;6.80;;;;;;;;;;6208095;28;20229;-66
2021/12/26 05:37:47;;;;;;;10.40;6.80;;;;;;;;;;6213976;28;20241;-65
2021/12/26 05:41:07;;;;;;;6.90;6.20;;;;;;;;;;6205042;28;20260;-67
2021/12/26 05:44:35;;;;;;;11.97;6.63;;;;;;;;;;6211823;28;20241;-67
2021/12/26 05:47:57;;;;;;;7.53;6.67;;;;;;;;;;6208996;28;20225;-66
2021/12/26 05:51:18;;;;;;;12.17;8.73;;;;;;;;;;6208941;28;20548;-66
2021/12/26 05:55:01;;;;;;;6.70;6.03;;;;;;;;;;6212538;28;20271;-66
2021/12/26 05:58:22;;;;;;;8.27;7.47;;;;;;;;;;6219431;28;20312;-66
2021/12/26 06:01:45;;;;;;;8.00;7.30;;;;;;;;;;6188968;28;20241;-66
2021/12/26 06:05:07;;;;;;;10.57;7.23;;;;;;;;;;6204236;28;20226;-67
2021/12/26 06:08:27;;;;;;;8.77;6.67;;;;;;;;;;6212001;28;20233;-66
2021/12/26 06:11:49;;;;;;;8.00;6.83;;;;;;;;;;6218631;28;20229;-66
2021/12/26 06:15:12;;;;;;;7.83;6.97;;;;;;;;;;6218858;28;20335;-66
2021/12/26 06:18:34;;;;;;;8.20;6.43;;;;;;;;;;6217181;28;20241;-65
2021/12/26 06:22:15;;;;;;;7.97;6.97;;;;;;;;;;6219481;28;20225;-65
2021/12/26 06:26:08;;;;;;;12.43;6.53;;;;;;;;;;6218633;28;20236;-66
2021/12/26 06:29:37;;;;;;;11.90;7.60;;;;;;;;;;6219965;28;20236;-65
2021/12/26 06:33:16;;;;;;;9.20;6.57;;;;;;;;;;6219121;28;20244;-66
2021/12/26 06:36:57;;;;;;;8.60;6.17;;;;;;;;;;6215775;28;20336;-66
2021/12/26 06:40:37;;;;;;;8.63;6.70;;;;;;;;;;6219357;28;20502;-65
2021/12/26 06:44:16;;;;;;;7.67;6.53;;;;;;;;;;6218469;28;20232;-66
2021/12/26 06:48:02;;;;;;;10.90;6.20;;;;;;;;;;6220490;28;20237;-65
2021/12/26 06:51:23;;;;;;;10.67;6.97;;;;;;;;;;6216310;28;20229;-66
2021/12/26 06:54:45;;;;;;;6.63;5.97;;;;;;;;;;6218489;28;20231;-64
2021/12/26 06:58:07;;;;;;;8.03;6.60;;;;;;;;;;6220069;28;20324;-65
2021/12/26 07:01:27;;;;;;;8.03;6.10;;;;;;;;;;6216028;28;20757;-66
2021/12/26 07:04:49;;;;;;;9.00;6.20;;;;;;;;;;6214804;28;20238;-67
2021/12/26 07:08:13;;;;;;;7.80;5.77;;;;;;;;;;6217860;28;20316;-66
2021/12/26 07:11:46;;;;;;;6.33;5.73;;;;;;;;;;6216721;28;20226;-65
2021/12/26 07:15:18;;;;;;;8.90;5.83;;;;;;;;;;6211740;28;20221;-65
2021/12/26 07:18:45;;;;;;;6.30;5.63;;;;;;;;;;6216575;28;20269;-66
2021/12/26 07:22:11;;;;;;;8.30;6.17;;;;;;;;;;6217019;28;20245;-66
2021/12/26 07:25:32;;;;;;;9.63;6.37;;;;;;;;;;6218093;28;20332;-66
2021/12/26 07:28:54;;;;;;;6.27;5.40;;;;;;;;;;6214026;28;20229;-66
2021/12/26 07:32:16;;;;;;;8.23;5.60;;;;;;;;;;6217804;28;20233;-66
2021/12/26 07:35:37;;;;;;;6.53;5.47;;;;;;;;;;6216645;28;20249;-66
2021/12/26 07:39:24;;;;;;;6.63;6.00;;;;;;;;;;6217119;28;20221;-66
2021/12/26 07:42:47;;;;;;;7.20;6.30;;;;;;;;;;6217877;28;20635;-66
2021/12/26 07:46:27;;;;;;;5.30;4.80;;;;;;;;;;6217717;28;20225;-65
2021/12/26 07:49:52;;;;;;;9.17;5.93;;;;;;;;;;6217548;28;20229;-66
2021/12/26 07:53:32;;;;;;;8.83;5.87;;;;;;;;;;6215640;28;20244;-66
2021/12/26 07:57:25;;;;;;;8.50;6.30;;;;;;;;;;6199152;28;20746;-66
2021/12/26 08:01:05;;;;;;;8.70;6.80;;;;;;;;;;6213908;28;20241;-66
2021/12/26 08:04:44;;;;;;;9.43;6.53;;;;;;;;;;6214747;28;20634;-67
2021/12/26 08:08:18;;;;;;;7.73;6.17;;;;;;;;;;6214184;28;20225;-65
2021/12/26 08:11:39;;;;;;;6.50;5.70;;;;;;;;;;6217343;28;20501;-67
2021/12/26 08:15:02;;;;;;;8.20;6.27;;;;;;;;;;6212948;28;20238;-66
2021/12/26 08:18:23;;;;;;;7.07;5.87;;;;;;;;;;6215173;28;20225;-66
2021/12/26 08:21:45;;;;;;;6.03;5.33;;;;;;;;;;6217794;28;20237;-66
2021/12/26 08:25:07;;;;;;;8.10;6.00;;;;;;;;;;6213359;28;20230;-65
2021/12/26 08:28:28;;;;;;;9.40;6.27;;;;;;;;;;6217243;28;20510;-65
2021/12/26 08:31:50;;;;;;;6.20;5.60;;;;;;;;;;6217179;28;20233;-66
2021/12/26 08:35:11;;;;;;;6.80;5.80;;;;;;;;;;6215412;28;20233;-67
2021/12/26 08:38:33;;;;;;;7.23;6.20;;;;;;;;;;6215620;28;20234;-66
2021/12/26 08:41:54;;;;;;;5.40;4.90;;;;;;;;;;6216383;28;20237;-66
2021/12/26 08:45:15;;;;;;;6.27;5.10;;;;;;;;;;6212636;28;20261;-64
2021/12/26 08:48:36;;;;;;;6.53;5.90;;;;;;;;;;6215726;28;20245;-66
2021/12/26 08:51:57;;;;;;;5.40;4.90;;;;;;;;;;6216456;28;20221;-66
2021/12/26 08:55:21;;;;;;;6.43;5.07;;;;;;;;;;6213312;28;20225;-66
2021/12/26 08:58:42;;;;;;;6.37;5.27;;;;;;;;;;6216831;28;20292;-66
2021/12/26 09:02:06;;;;;;;6.43;5.30;;;;;;;;;;6210513;28;20237;-65
2021/12/26 09:05:27;;;;;;;4.90;4.40;;;;;;;;;;6214653;28;20221;-67
2021/12/26 09:08:48;;;;;;;6.67;4.90;;;;;;;;;;6216210;28;20240;-66
2021/12/26 09:12:11;;;;;;;6.07;4.97;;;;;;;;;;6213850;28;20237;-66
2021/12/26 09:15:32;;;;;;;8.57;5.23;;;;;;;;;;6216732;28;20237;-65
2021/12/26 09:18:53;;;;;;;5.27;4.77;;;;;;;;;;6212783;28;20221;-65
2021/12/26 09:22:15;;;;;;;5.77;5.27;;;;;;;;;;6216701;28;20241;-66
2021/12/26 09:25:36;;;;;;;5.43;4.73;;;;;;;;;;6216373;28;20573;-66
2021/12/26 09:28:58;;;;;;;5.63;4.80;;;;;;;;;;6213860;28;20225;-66
2021/12/26 09:32:18;;;;;;;4.70;4.30;;;;;;;;;;6216063;28;20221;-67
2021/12/26 09:35:40;;;;;;;5.40;4.47;;;;;;;;;;6202508;28;20261;-66
2021/12/26 09:39:01;;;;;;;5.03;4.53;;;;;;;;;;6213116;28;20767;-67
2021/12/26 09:42:21;;;;;;;6.30;5.23;;;;;;;;;;6216494;28;20311;-66
2021/12/26 09:45:44;;;;;;;5.10;4.60;;;;;;;;;;6212224;28;20233;-66
2021/12/26 09:49:05;;;;;;;5.03;4.47;;;;;;;;;;6214571;28;20233;-65
2021/12/26 09:52:25;;;;;;;6.20;4.78;;;;;;;;;;6215919;28;20229;-67
2021/12/26 09:55:47;;;;;;;6.10;5.40;;;;;;;;;;6211741;28;20734;-66
2021/12/26 09:59:14;;;;;;;5.47;4.93;;;;;;;;;;6212184;28;20233;-66
2021/12/26 10:02:36;;;;;;;5.18;4.25;;;;;;;;;;6214956;28;20225;-65
2021/12/26 10:06:09;;;;;;;5.22;3.85;;;;;;;;;;6206936;28;20228;-66
2021/12/26 10:09:32;;;;;;;5.78;5.20;;;;;;;;;;6215752;28;20251;-67
2021/12/26 10:12:53;;;;;;;6.32;5.25;;;;;;;;;;6214520;28;20767;-66
2021/12/26 10:16:15;;;;;;;5.05;4.65;;;;;;;;;;6213547;28;20595;-65
2021/12/26 10:19:40;;;;;;;4.88;4.43;;;;;;;;;;6209022;28;20237;-66
2021/12/26 10:23:25;;;;;;;5.57;4.78;;;;;;;;;;6209057;28;20229;-67
2021/12/26 10:26:48;;;;;;;5.00;4.60;;;;;;;;;;6209188;28;20233;-66
2021/12/26 10:30:15;;;;;;;5.10;4.65;;;;;;;;;;6211882;28;20257;-66
2021/12/26 10:33:48;;;;;;;6.53;4.78;;;;;;;;;;6210343;28;20643;-66
2021/12/26 10:37:13;;;;;;;5.85;4.95;;;;;;;;;;6216168;28;20574;-65
2021/12/26 10:40:35;;;;;;;5.38;4.97;;;;;;;;;;6214281;28;20610;-66
2021/12/26 10:44:02;;;;;;;6.72;5.18;;;;;;;;;;6208336;28;20614;-67
2021/12/26 10:47:24;;;;;;;5.30;4.82;;;;;;;;;;6213775;28;20237;-66
2021/12/26 10:50:45;;;;;;;4.57;4.18;;;;;;;;;;6214556;28;20256;-66
2021/12/26 10:54:14;;;;;;;5.05;4.63;;;;;;;;;;6215697;28;20229;-66
2021/12/26 10:57:37;;;;;;;4.75;4.07;;;;;;;;;;6219105;28;20225;-66
2021/12/26 11:00:58;;;;;;;4.50;4.10;;;;;;;;;;6218285;28;20631;-66
2021/12/26 11:04:20;;;;;;;4.15;3.75;;;;;;;;;;6215909;28;20237;-65
2021/12/26 11:07:50;;;;;;;4.85;4.03;;;;;;;;;;6223994;28;20244;-65
2021/12/26 11:11:16;;;;;;;4.80;3.75;;;;;;;;;;6212977;28;20320;-64
2021/12/26 11:14:58;;;;;;;4.88;4.05;;;;;;;;;;6219555;28;20233;-66
2021/12/26 11:18:19;;;;;;;3.38;3.08;;;;;;;;;;6205170;28;20229;-66
2021/12/26 11:21:40;;;;;;;4.20;3.80;;;;;;;;;;6220263;28;20233;-66
2021/12/26 11:25:01;;;;;;;5.28;3.70;;;;;;;;;;6219269;28;20229;-65
2021/12/26 11:28:27;;;;;;;2.80;2.50;;;;;;;;;;6213336;28;20233;-66
2021/12/26 11:31:53;;;;;;;2.58;2.38;;;;;;;;;;6219206;28;20225;-65
2021/12/26 11:35:14;;;;;;;3.20;2.40;;;;;;;;;;6209569;28;20230;-65
2021/12/26 11:38:34;;;;;;;3.53;3.22;;;;;;;;;;6213342;28;20241;-65
2021/12/26 11:42:48;;;;;;;3.22;2.72;;;;;;;;;;6212345;28;20229;-66
2021/12/26 11:46:38;;;;;;;3.75;2.80;;;;;;;;;;6215749;28;20229;-66
2021/12/26 11:50:28;;;;;;;3.78;3.30;;;;;;;;;;6214369;28;20610;-66
2021/12/26 11:54:45;;;;;;;3.95;2.97;;;;;;;;;;6215071;28;20225;-66
2021/12/26 11:58:28;;;;;;;3.08;2.78;;;;;;;;;;6190518;28;20233;-66
2021/12/26 12:01:50;;;;;;;3.58;3.28;;;;;;;;;;6215538;28;21022;-65
2021/12/26 12:05:17;;;;;;;5.22;4.78;;;;;;;;;;6213649;28;20236;-66
2021/12/26 12:08:37;;;;;;;3.92;2.92;;;;;;;;;;6217160;28;20233;-65
2021/12/26 12:12:00;;;;;;;5.05;3.17;;;;;;;;;;6208215;28;20241;-66
2021/12/26 12:15:41;;;;;;;5.85;3.35;;;;;;;;;;6217534;28;20582;-65
2021/12/26 12:19:11;;;;;;;3.90;2.65;;;;;;;;;;6213782;28;20233;-65
2021/12/26 12:22:32;;;;;;;4.10;3.75;;;;;;;;;;6208996;28;20917;-65
2021/12/26 12:25:53;;;;;;;3.60;3.07;;;;;;;;;;6213888;28;20221;-65
2021/12/26 12:29:38;;;;;;;3.30;3.00;;;;;;;;;;6215705;28;20245;-65
2021/12/26 12:33:13;;;;;;;3.20;2.70;;;;;;;;;;6215467;28;20240;-65
2021/12/26 12:36:38;;;;;;;2.67;2.47;;;;;;;;;;6214518;28;20639;-65
2021/12/26 12:40:14;;;;;;;3.03;2.53;;;;;;;;;;6216609;28;20233;-65
2021/12/26 12:43:44;;;;;;;3.47;3.13;;;;;;;;;;6210032;28;20328;-66
2021/12/26 12:47:07;;;;;;;3.97;3.03;;;;;;;;;;6215757;28;20240;-65
2021/12/26 12:50:32;;;;;;;4.70;3.73;;;;;;;;;;6207931;28;20230;-65
2021/12/26 12:53:55;;;;;;;3.43;3.13;;;;;;;;;;6217619;28;20628;-66
2021/12/26 12:57:34;;;;;;;3.53;3.17;;;;;;;;;;6213107;28;20738;-65
2021/12/26 13:00:55;;;;;;;3.00;2.53;;;;;;;;;;6214679;28;20217;-66
2021/12/26 13:04:19;;;;;;;3.60;3.30;;;;;;;;;;6216548;28;20220;-65
2021/12/26 13:07:40;;;;;;;6.17;3.97;;;;;;;;;;6221228;28;20517;-65
2021/12/26 13:11:03;;;;;;;3.40;2.83;;;;;;;;;;6200951;28;20245;-65
2021/12/26 13:14:35;;;;;;;3.70;2.87;;;;;;;;;;6216351;28;20694;-67
2021/12/26 13:17:55;;;;;;;4.13;3.50;;;;;;;;;;6209140;28;20229;-67
2021/12/26 13:21:19;;;;;;;3.83;3.40;;;;;;;;;;6214042;28;20221;-66
2021/12/26 13:24:41;;;;;;;3.53;3.23;;;;;;;;;;6216949;28;20233;-66
2021/12/26 13:28:05;;;;;;;4.00;3.23;;;;;;;;;;6196944;28;20217;-66
2021/12/26 13:31:26;;;;;;;4.77;3.27;;;;;;;;;;6212272;28;20233;-66
2021/12/26 13:34:54;;;;;;;3.83;3.20;;;;;;;;;;6207174;28;20241;-66
2021/12/26 13:38:15;;;;;;;9.40;8.00;;;;;;;;;;6207200;28;20224;-65
2021/12/26 13:41:36;;;;;;;6.73;4.83;;;;;;;;;;6205365;28;20229;-65
2021/12/26 13:44:58;;;;;;;4.53;3.90;;;;;;;;;;6207722;28;20217;-64
2021/12/26 13:48:27;;;;;;;4.80;3.47;;;;;;;;;;6207535;28;20221;-66
2021/12/26 13:51:54;;;;;;;3.90;3.47;;;;;;;;;;6213668;28;20245;-65
2021/12/26 13:55:15;;;;;;;5.03;4.03;;;;;;;;;;6205908;28;20946;-65
2021/12/26 13:58:36;;;;;;;3.50;3.20;;;;;;;;;;6215365;28;20264;-67
2021/12/26 14:01:59;;;;;;;4.97;3.83;;;;;;;;;;6205785;28;20225;-64
2021/12/26 14:05:21;;;;;;;5.53;2.53;;;;;;;;;;6198789;28;20233;-64
2021/12/26 14:08:42;;;;;;;4.30;2.97;;;;;;;;;;6202870;28;20233;-64
2021/12/26 14:12:04;;;;;;;4.07;3.53;;;;;;;;;;6193905;28;20244;-64
2021/12/26 14:15:29;;;;;;;4.20;3.37;;;;;;;;;;6204942;28;20316;-64
2021/12/26 14:18:51;;;;;;;3.37;3.07;;;;;;;;;;6200023;28;20256;-64
2021/12/26 14:22:12;;;;;;;4.13;3.37;;;;;;;;;;6205869;28;20556;-64
2021/12/26 14:25:32;;;;;;;6.10;3.90;;;;;;;;;;6210615;28;20237;-64
2021/12/26 14:28:55;;;;;;;3.90;3.60;;;;;;;;;;6202714;28;20566;-63
2021/12/26 14:32:16;;;;;;;3.53;3.23;;;;;;;;;;6203608;28;20299;-63
2021/12/26 14:35:38;;;;;;;4.67;3.63;;;;;;;;;;6202474;28;20595;-64
2021/12/26 14:39:03;;;;;;;6.53;4.13;;;;;;;;;;6201052;28;20261;-63
2021/12/26 14:42:25;;;;;;;5.17;4.33;;;;;;;;;;6206890;28;20587;-64
2021/12/26 14:45:51;;;;;;;5.43;4.07;;;;;;;;;;6213463;28;20233;-63
2021/12/26 14:49:14;;;;;;;4.23;3.67;;;;;;;;;;6214911;28;20229;-61
2021/12/26 14:52:43;;;;;;;4.37;3.37;;;;;;;;;;6210770;28;20265;-64
2021/12/26 14:56:06;;;;;;;4.93;3.60;;;;;;;;;;6212855;28;20232;-63
2021/12/26 14:59:29;;;;;;;5.33;3.80;;;;;;;;;;6218549;28;20825;-63
2021/12/26 15:02:52;;;;;;;4.40;3.67;;;;;;;;;;6208306;28;20237;-63
2021/12/26 15:06:13;;;;;;;5.63;4.77;;;;;;;;;;6216301;28;20229;-63
2021/12/26 15:09:38;;;;;;;4.80;3.50;;;;;;;;;;6208082;28;20244;-62
2021/12/26 15:12:59;;;;;;;6.63;3.57;;;;;;;;;;6200877;28;20251;-63
2021/12/26 15:16:26;;;;;;;5.30;3.97;;;;;;;;;;6211364;28;21077;-62
2021/12/26 15:19:48;;;;;;;5.47;3.73;;;;;;;;;;6212987;28;20241;-63
2021/12/26 15:23:11;;;;;;;4.27;3.83;;;;;;;;;;6204836;28;20233;-62
2021/12/26 15:26:35;;;;;;;6.43;4.17;;;;;;;;;;6204387;28;20229;-63
2021/12/26 15:29:57;;;;;;;4.13;3.63;;;;;;;;;;6204355;28;20606;-62
2021/12/26 15:33:30;;;;;;;5.87;4.10;;;;;;;;;;6203478;28;20623;-63
2021/12/26 15:36:51;;;;;;;4.93;3.63;;;;;;;;;;6205039;28;20233;-62
2021/12/26 15:40:14;;;;;;;6.10;4.70;;;;;;;;;;6205816;28;20619;-63
2021/12/26 15:43:36;;;;;;;5.03;4.10;;;;;;;;;;6205123;28;21004;-63
2021/12/26 15:46:59;;;;;;;5.80;3.63;;;;;;;;;;6206824;28;20529;-63
2021/12/26 15:50:20;;;;;;;4.37;3.73;;;;;;;;;;6202098;28;20237;-63
2021/12/26 15:53:42;;;;;;;5.33;4.37;;;;;;;;;;6199745;28;20225;-63
2021/12/26 15:57:03;;;;;;;11.20;7.93;;;;;;;;;;6210709;28;20226;-62
2021/12/26 16:00:26;;;;;;;4.53;4.13;;;;;;;;;;6212611;28;20693;-64
2021/12/26 16:03:47;;;;;;;6.90;4.90;;;;;;;;;;6206937;28;20225;-62
2021/12/26 16:07:07;;;;;;;5.27;4.00;;;;;;;;;;6210290;28;20233;-61
2021/12/26 16:10:28;;;;;;;4.27;3.87;;;;;;;;;;6209332;28;20241;-62
2021/12/26 16:13:49;;;;;;;5.93;4.40;;;;;;;;;;6209745;28;20229;-63
2021/12/26 16:17:12;;;;;;;6.47;4.20;;;;;;;;;;6202715;28;20642;-62
2021/12/26 16:20:32;;;;;;;4.50;4.10;;;;;;;;;;6208982;28;20256;-63
2021/12/26 16:23:53;;;;;;;4.43;4.00;;;;;;;;;;6220334;28;20542;-64
2021/12/26 16:27:15;;;;;;;5.27;3.60;;;;;;;;;;6217565;28;20228;-62
2021/12/26 16:30:37;;;;;;;5.57;4.17;;;;;;;;;;6213639;28;20241;-62
2021/12/26 16:34:00;;;;;;;4.33;3.93;;;;;;;;;;6211872;28;20229;-61
2021/12/26 16:37:20;;;;;;;4.33;3.97;;;;;;;;;;6211969;28;20229;-63
2021/12/26 16:40:42;;;;;;;4.40;4.00;;;;;;;;;;6214849;28;20545;-63
2021/12/26 16:44:03;;;;;;;5.00;4.50;;;;;;;;;;6214079;28;20229;-62
2021/12/26 16:47:23;;;;;;;6.07;3.87;;;;;;;;;;6207118;28;20225;-62
2021/12/26 16:50:46;;;;;;;3.93;3.53;;;;;;;;;;6212530;28;20225;-64
2021/12/26 16:54:07;;;;;;;5.93;4.47;;;;;;;;;;6214445;28;20233;-63
2021/12/26 16:57:28;;;;;;;3.90;3.60;;;;;;;;;;6215830;28;20535;-64
2021/12/26 17:00:52;;;;;;;6.80;4.30;;;;;;;;;;6213853;28;20229;-63
2021/12/26 17:04:14;;;;;;;6.60;4.27;;;;;;;;;;6211022;28;20226;-64
2021/12/26 17:07:37;;;;;;;6.13;4.27;;;;;;;;;;6207321;28;20237;-63
2021/12/26 17:10:58;;;;;;;4.83;4.40;;;;;;;;;;6204161;28;20288;-64
2021/12/26 17:14:19;;;;;;;4.90;4.23;;;;;;;;;;6205836;28;20236;-62
2021/12/26 17:17:41;;;;;;;4.70;3.73;;;;;;;;;;6206331;28;20228;-62
2021/12/26 17:21:01;;;;;;;6.53;3.77;;;;;;;;;;6208070;28;20240;-64
2021/12/26 17:24:23;;;;;;;5.33;4.27;;;;;;;;;;6208441;28;21098;-64
2021/12/26 17:27:45;;;;;;;4.20;3.80;;;;;;;;;;6204672;28;20470;-64
2021/12/26 17:31:06;;;;;;;6.30;4.20;;;;;;;;;;6201887;28;21890;-64
2021/12/26 17:34:27;;;;;;;5.20;4.63;;;;;;;;;;6200156;28;20249;-63
2021/12/26 17:37:48;;;;;;;8.97;5.90;;;;;;;;;;6209029;28;20229;-63
2021/12/26 17:41:10;;;;;;;7.93;6.43;;;;;;;;;;6213894;28;20233;-64
2021/12/26 17:44:31;;;;;;;8.07;5.90;;;;;;;;;;6207580;28;20237;-63
2021/12/26 17:47:52;;;;;;;10.57;6.70;;;;;;;;;;6206483;28;20677;-64
2021/12/26 17:51:13;;;;;;;6.57;5.17;;;;;;;;;;6210847;28;20221;-63
2021/12/26 17:54:34;;;;;;;8.03;5.50;;;;;;;;;;6205482;28;20245;-63
2021/12/26 17:57:56;;;;;;;7.17;6.17;;;;;;;;;;6206480;28;20691;-63
2021/12/26 18:01:17;;;;;;;9.60;7.37;;;;;;;;;;6201275;28;20218;-64
2021/12/26 18:04:38;;;;;;;10.37;7.67;;;;;;;;;;6204621;28;20322;-64
2021/12/26 18:07:59;;;;;;;6.77;5.97;;;;;;;;;;6206719;28;20278;-63
2021/12/26 18:11:20;;;;;;;8.13;5.80;;;;;;;;;;6205548;28;20612;-63
2021/12/26 18:14:43;;;;;;;10.33;4.80;;;;;;;;;;6205353;28;20229;-63
2021/12/26 18:18:04;;;;;;;5.40;4.87;;;;;;;;;;6205619;28;20603;-62
2021/12/26 18:21:25;;;;;;;6.43;5.07;;;;;;;;;;6208799;28;20304;-62
2021/12/26 18:24:46;;;;;;;6.57;5.57;;;;;;;;;;6204855;28;20662;-63
2021/12/26 18:28:07;;;;;;;7.37;6.37;;;;;;;;;;6204630;28;20599;-63
2021/12/26 18:31:30;;;;;;;11.37;7.20;;;;;;;;;;6208041;28;20638;-64
2021/12/26 18:34:51;;;;;;;8.03;5.53;;;;;;;;;;6203640;28;20236;-63
2021/12/26 18:38:12;;;;;;;9.27;5.23;;;;;;;;;;6201105;28;20627;-66
2021/12/26 18:41:33;;;;;;;6.60;5.67;;;;;;;;;;6204776;28;20390;-63
2021/12/26 18:44:54;;;;;;;8.07;6.30;;;;;;;;;;6200979;28;20225;-63
2021/12/26 18:48:19;;;;;;;7.57;5.10;;;;;;;;;;6202474;28;20232;-63
2021/12/26 18:51:40;;;;;;;6.13;5.03;;;;;;;;;;6203940;28;20241;-63
2021/12/26 18:55:01;;;;;;;6.07;5.47;;;;;;;;;;6147831;28;20267;-63
2021/12/26 18:58:22;;;;;;;6.70;6.00;;;;;;;;;;6130439;28;20254;-64
2021/12/26 19:01:43;;;;;;;6.70;5.40;;;;;;;;;;6155700;28;20226;-63
2021/12/26 19:05:05;;;;;;;6.57;5.43;;;;;;;;;;6153793;28;20254;-63
2021/12/26 19:08:26;;;;;;;6.87;4.93;;;;;;;;;;6147892;28;20226;-63
2021/12/26 19:11:47;;;;;;;7.70;5.17;;;;;;;;;;6155331;28;20645;-63
2021/12/26 19:15:09;;;;;;;6.57;4.57;;;;;;;;;;6142043;28;20238;-63
2021/12/26 19:18:31;;;;;;;7.90;6.97;;;;;;;;;;6150275;28;20257;-65
2021/12/26 19:21:53;;;;;;;7.33;6.03;;;;;;;;;;6160123;28;20530;-65
2021/12/26 19:25:14;;;;;;;5.63;4.67;;;;;;;;;;6160142;28;20416;-64
2021/12/26 19:28:41;;;;;;;10.03;6.83;;;;;;;;;;6164588;28;20246;-65
2021/12/26 19:32:04;;;;;;;9.00;6.10;;;;;;;;;;6161951;28;20453;-66
2021/12/26 19:35:27;;;;;;;5.73;5.20;;;;;;;;;;6157741;28;20337;-65
2021/12/26 19:38:49;;;;;;;8.20;5.93;;;;;;;;;;6156901;28;20273;-65
2021/12/26 19:42:11;;;;;;;8.30;6.07;;;;;;;;;;6149529;28;21535;-66
2021/12/26 19:45:32;;;;;;;8.07;5.93;;;;;;;;;;6159311;28;20238;-66
2021/12/26 19:48:54;;;;;;;7.27;5.00;;;;;;;;;;6159294;28;20598;-65
2021/12/26 19:52:14;;;;;;;8.97;6.37;;;;;;;;;;6160881;28;20334;-66
2021/12/26 19:55:36;;;;;;;8.07;5.70;;;;;;;;;;6159419;28;20235;-67
2021/12/26 19:58:58;;;;;;;7.67;5.93;;;;;;;;;;6153152;28;20226;-66
2021/12/26 20:02:19;;;;;;;8.03;5.90;;;;;;;;;;6154987;28;20269;-68
2021/12/26 20:05:40;;;;;;;6.10;4.67;;;;;;;;;;6159902;28;20325;-66
2021/12/26 20:09:01;;;;;;;8.07;5.83;;;;;;;;;;6159656;28;20238;-67
2021/12/26 20:12:24;;;;;;;9.53;5.87;;;;;;;;;;6157314;28;20235;-65
2021/12/26 20:15:45;;;;;;;5.03;4.13;;;;;;;;;;6160360;28;20231;-66
2021/12/26 20:19:06;;;;;;;7.50;4.73;;;;;;;;;;6155487;28;20541;-67